sensor_id;sensor_type;location;lat;lon;timestamp;P1;P2;P0
39955;PMS5003;25631;51.516;-0.470;2023-11-19T00:00:25;2;1;
39955;PMS5003;25631;51.516;-0.470;2023-11-19T00:03:02;4;2;
39955;PMS5003;25631;51.516;-0.470;2023-11-19T00:05:38;5;3;
39955;PMS5003;25631;51.516;-0.470;2023-11-19T00:08:15;4;4;
39955;PMS5003;25631;51.516;-0.470;2023-11-19T00:10:51;6;6;
39955;PMS5003;25631;51.516;-0.470;2023-11-19T00:13:28;3;3;
39955;PMS5003;25631;51.516;-0.470;2023-11-19T00:16:05;3;2;
39955;PMS5003;25631;51.516;-0.470;2023-11-19T00:18:42;4;3;
39955;PMS5003;25631;51.516;-0.470;2023-11-19T00:21:18;4;3;
39955;PMS5003;25631;51.516;-0.470;2023-11-19T00:23:55;8;6;
39955;PMS5003;25631;51.516;-0.470;2023-11-19T00:26:31;7;6;
39955;PMS5003;25631;51.516;-0.470;2023-11-19T00:29:08;3;3;
39955;PMS5003;25631;51.516;-0.470;2023-11-19T00:31:44;5;4;
39955;PMS5003;25631;51.516;-0.470;2023-11-19T00:34:20;5;4;
39955;PMS5003;25631;51.516;-0.470;2023-11-19T00:36:56;5;5;
39955;PMS5003;25631;51.516;-0.470;2023-11-19T00:39:33;6;6;
39955;PMS5003;25631;51.516;-0.470;2023-11-19T00:42:09;7;6;
39955;PMS5003;25631;51.516;-0.470;2023-11-19T00:44:46;5;5;
39955;PMS5003;25631;51.516;-0.470;2023-11-19T00:47:22;5;5;
39955;PMS5003;25631;51.516;-0.470;2023-11-19T00:49:58;4;3;
39955;PMS5003;25631;51.516;-0.470;2023-11-19T00:52:34;4;3;
39955;PMS5003;25631;51.516;-0.470;2023-11-19T00:55:11;6;5;
39955;PMS5003;25631;51.516;-0.470;2023-11-19T00:57:48;5;3;
39955;PMS5003;25631;51.516;-0.470;2023-11-19T01:00:24;5;3;
39955;PMS5003;25631;51.516;-0.470;2023-11-19T01:03:01;5;4;
39955;PMS5003;25631;51.516;-0.470;2023-11-19T01:05:37;4;4;
39955;PMS5003;25631;51.516;-0.470;2023-11-19T01:08:13;4;4;
39955;PMS5003;25631;51.516;-0.470;2023-11-19T01:10:50;2;2;
39955;PMS5003;25631;51.516;-0.470;2023-11-19T01:13:26;1;1;
39955;PMS5003;25631;51.516;-0.470;2023-11-19T01:16:03;5;5;
39955;PMS5003;25631;51.516;-0.470;2023-11-19T01:18:40;6;5;
39955;PMS5003;25631;51.516;-0.470;2023-11-19T01:21:17;8;7;
39955;PMS5003;25631;51.516;-0.470;2023-11-19T01:23:53;5;2;
39955;PMS5003;25631;51.516;-0.470;2023-11-19T01:26:29;6;3;
39955;PMS5003;25631;51.516;-0.470;2023-11-19T01:29:06;5;5;
39955;PMS5003;25631;51.516;-0.470;2023-11-19T01:31:42;5;5;
39955;PMS5003;25631;51.516;-0.470;2023-11-19T01:34:19;4;4;
39955;PMS5003;25631;51.516;-0.470;2023-11-19T01:36:55;3;3;
39955;PMS5003;25631;51.516;-0.470;2023-11-19T01:39:32;4;3;
39955;PMS5003;25631;51.516;-0.470;2023-11-19T01:42:08;3;3;
39955;PMS5003;25631;51.516;-0.470;2023-11-19T01:44:54;3;3;
39955;PMS5003;25631;51.516;-0.470;2023-11-19T01:47:33;3;3;
39955;PMS5003;25631;51.516;-0.470;2023-11-19T01:50:10;4;3;
39955;PMS5003;25631;51.516;-0.470;2023-11-19T01:52:47;4;3;
39955;PMS5003;25631;51.516;-0.470;2023-11-19T01:55:24;6;4;
39955;PMS5003;25631;51.516;-0.470;2023-11-19T01:58:02;7;4;
39955;PMS5003;25631;51.516;-0.470;2023-11-19T02:00:39;4;3;
39955;PMS5003;25631;51.516;-0.470;2023-11-19T02:03:16;3;3;
39955;PMS5003;25631;51.516;-0.470;2023-11-19T02:05:52;3;3;
39955;PMS5003;25631;51.516;-0.470;2023-11-19T02:08:29;4;4;
39955;PMS5003;25631;51.516;-0.470;2023-11-19T02:11:06;3;3;
39955;PMS5003;25631;51.516;-0.470;2023-11-19T02:13:42;4;4;
39955;PMS5003;25631;51.516;-0.470;2023-11-19T02:16:19;8;7;
39955;PMS5003;25631;51.516;-0.470;2023-11-19T02:18:55;9;7;
39955;PMS5003;25631;51.516;-0.470;2023-11-19T02:21:32;10;7;
39955;PMS5003;25631;51.516;-0.470;2023-11-19T02:24:08;5;4;
39955;PMS5003;25631;51.516;-0.470;2023-11-19T02:26:50;5;4;
39955;PMS5003;25631;51.516;-0.470;2023-11-19T02:29:33;6;5;
39955;PMS5003;25631;51.516;-0.470;2023-11-19T02:32:10;7;7;
39955;PMS5003;25631;51.516;-0.470;2023-11-19T02:34:46;7;6;
39955;PMS5003;25631;51.516;-0.470;2023-11-19T02:37:22;7;4;
39955;PMS5003;25631;51.516;-0.470;2023-11-19T02:39:59;6;4;
39955;PMS5003;25631;51.516;-0.470;2023-11-19T02:42:35;7;4;
39955;PMS5003;25631;51.516;-0.470;2023-11-19T02:45:11;4;4;
39955;PMS5003;25631;51.516;-0.470;2023-11-19T02:47:47;3;3;
39955;PMS5003;25631;51.516;-0.470;2023-11-19T02:50:24;7;4;
39955;PMS5003;25631;51.516;-0.470;2023-11-19T02:53:01;6;4;
39955;PMS5003;25631;51.516;-0.470;2023-11-19T02:55:37;6;4;
39955;PMS5003;25631;51.516;-0.470;2023-11-19T02:58:14;6;5;
39955;PMS5003;25631;51.516;-0.470;2023-11-19T03:00:50;6;6;
39955;PMS5003;25631;51.516;-0.470;2023-11-19T03:03:29;5;5;
39955;PMS5003;25631;51.516;-0.470;2023-11-19T03:06:06;5;4;
39955;PMS5003;25631;51.516;-0.470;2023-11-19T03:08:43;6;5;
39955;PMS5003;25631;51.516;-0.470;2023-11-19T03:11:19;5;3;
39955;PMS5003;25631;51.516;-0.470;2023-11-19T03:13:56;5;3;
39955;PMS5003;25631;51.516;-0.470;2023-11-19T03:16:32;3;3;
39955;PMS5003;25631;51.516;-0.470;2023-11-19T03:19:08;2;2;
39955;PMS5003;25631;51.516;-0.470;2023-11-19T03:21:45;2;2;
39955;PMS5003;25631;51.516;-0.470;2023-11-19T03:24:22;3;3;
39955;PMS5003;25631;51.516;-0.470;2023-11-19T03:26:58;3;3;
39955;PMS5003;25631;51.516;-0.470;2023-11-19T03:29:34;3;2;
39955;PMS5003;25631;51.516;-0.470;2023-11-19T03:32:11;2;2;
39955;PMS5003;25631;51.516;-0.470;2023-11-19T03:34:47;2;2;
39955;PMS5003;25631;51.516;-0.470;2023-11-19T03:37:23;3;3;
39955;PMS5003;25631;51.516;-0.470;2023-11-19T03:40:00;4;4;
39955;PMS5003;25631;51.516;-0.470;2023-11-19T03:42:36;6;3;
39955;PMS5003;25631;51.516;-0.470;2023-11-19T03:45:13;4;3;
39955;PMS5003;25631;51.516;-0.470;2023-11-19T03:47:50;4;3;
39955;PMS5003;25631;51.516;-0.470;2023-11-19T03:50:26;2;2;
39955;PMS5003;25631;51.516;-0.470;2023-11-19T03:53:02;3;3;
39955;PMS5003;25631;51.516;-0.470;2023-11-19T03:55:39;3;2;
39955;PMS5003;25631;51.516;-0.470;2023-11-19T03:58:15;3;2;
39955;PMS5003;25631;51.516;-0.470;2023-11-19T04:00:52;3;3;
39955;PMS5003;25631;51.516;-0.470;2023-11-19T04:03:28;1;1;
39955;PMS5003;25631;51.516;-0.470;2023-11-19T04:06:04;1;1;
39955;PMS5003;25631;51.516;-0.470;2023-11-19T04:08:41;1;1;
39955;PMS5003;25631;51.516;-0.470;2023-11-19T04:11:18;4;3;
39955;PMS5003;25631;51.516;-0.470;2023-11-19T04:13:54;3;3;
39955;PMS5003;25631;51.516;-0.470;2023-11-19T04:16:31;2;2;
39955;PMS5003;25631;51.516;-0.470;2023-11-19T04:19:07;3;3;
39955;PMS5003;25631;51.516;-0.470;2023-11-19T04:21:43;4;3;
39955;PMS5003;25631;51.516;-0.470;2023-11-19T04:24:20;4;4;
39955;PMS5003;25631;51.516;-0.470;2023-11-19T04:26:57;4;3;
39955;PMS5003;25631;51.516;-0.470;2023-11-19T04:29:33;4;4;
39955;PMS5003;25631;51.516;-0.470;2023-11-19T04:32:09;4;2;
39955;PMS5003;25631;51.516;-0.470;2023-11-19T04:34:46;3;2;
39955;PMS5003;25631;51.516;-0.470;2023-11-19T04:37:22;2;2;
39955;PMS5003;25631;51.516;-0.470;2023-11-19T04:39:58;4;3;
39955;PMS5003;25631;51.516;-0.470;2023-11-19T04:42:35;5;4;
39955;PMS5003;25631;51.516;-0.470;2023-11-19T04:45:11;2;2;
39955;PMS5003;25631;51.516;-0.470;2023-11-19T04:47:48;2;2;
39955;PMS5003;25631;51.516;-0.470;2023-11-19T04:50:24;3;3;
39955;PMS5003;25631;51.516;-0.470;2023-11-19T04:53:00;3;3;
39955;PMS5003;25631;51.516;-0.470;2023-11-19T04:55:37;3;3;
39955;PMS5003;25631;51.516;-0.470;2023-11-19T04:58:13;3;2;
39955;PMS5003;25631;51.516;-0.470;2023-11-19T05:00:49;2;2;
39955;PMS5003;25631;51.516;-0.470;2023-11-19T05:03:25;3;2;
39955;PMS5003;25631;51.516;-0.470;2023-11-19T05:06:02;3;3;
39955;PMS5003;25631;51.516;-0.470;2023-11-19T05:08:38;3;3;
39955;PMS5003;25631;51.516;-0.470;2023-11-19T05:11:15;3;3;
39955;PMS5003;25631;51.516;-0.470;2023-11-19T05:13:51;3;2;
39955;PMS5003;25631;51.516;-0.470;2023-11-19T05:16:28;3;2;
39955;PMS5003;25631;51.516;-0.470;2023-11-19T05:19:04;2;1;
39955;PMS5003;25631;51.516;-0.470;2023-11-19T05:21:41;1;1;
39955;PMS5003;25631;51.516;-0.470;2023-11-19T05:24:18;2;2;
39955;PMS5003;25631;51.516;-0.470;2023-11-19T05:26:54;3;3;
39955;PMS5003;25631;51.516;-0.470;2023-11-19T05:29:31;1;1;
39955;PMS5003;25631;51.516;-0.470;2023-11-19T05:32:07;7;6;
39955;PMS5003;25631;51.516;-0.470;2023-11-19T05:34:43;5;5;
39955;PMS5003;25631;51.516;-0.470;2023-11-19T05:37:20;4;4;
39955;PMS5003;25631;51.516;-0.470;2023-11-19T05:39:56;2;2;
39955;PMS5003;25631;51.516;-0.470;2023-11-19T05:42:33;2;2;
39955;PMS5003;25631;51.516;-0.470;2023-11-19T05:45:11;3;2;
39955;PMS5003;25631;51.516;-0.470;2023-11-19T05:47:47;3;3;
39955;PMS5003;25631;51.516;-0.470;2023-11-19T05:50:24;4;3;
39955;PMS5003;25631;51.516;-0.470;2023-11-19T05:53:00;3;3;
39955;PMS5003;25631;51.516;-0.470;2023-11-19T05:55:36;4;3;
39955;PMS5003;25631;51.516;-0.470;2023-11-19T05:58:13;3;3;
39955;PMS5003;25631;51.516;-0.470;2023-11-19T06:00:49;3;3;
39955;PMS5003;25631;51.516;-0.470;2023-11-19T06:03:25;3;3;
39955;PMS5003;25631;51.516;-0.470;2023-11-19T06:06:02;4;3;
39955;PMS5003;25631;51.516;-0.470;2023-11-19T06:08:39;5;3;
39955;PMS5003;25631;51.516;-0.470;2023-11-19T06:11:15;5;4;
39955;PMS5003;25631;51.516;-0.470;2023-11-19T06:13:52;2;2;
39955;PMS5003;25631;51.516;-0.470;2023-11-19T06:16:28;2;2;
39955;PMS5003;25631;51.516;-0.470;2023-11-19T06:19:05;1;1;
39955;PMS5003;25631;51.516;-0.470;2023-11-19T06:21:41;0;0;
39955;PMS5003;25631;51.516;-0.470;2023-11-19T06:24:17;0;0;
39955;PMS5003;25631;51.516;-0.470;2023-11-19T06:26:54;3;3;
39955;PMS5003;25631;51.516;-0.470;2023-11-19T06:29:30;3;3;
39955;PMS5003;25631;51.516;-0.470;2023-11-19T06:32:07;1;1;
39955;PMS5003;25631;51.516;-0.470;2023-11-19T06:34:43;1;1;
39955;PMS5003;25631;51.516;-0.470;2023-11-19T06:37:20;1;1;
39955;PMS5003;25631;51.516;-0.470;2023-11-19T06:39:56;3;3;
39955;PMS5003;25631;51.516;-0.470;2023-11-19T06:42:33;2;2;
39955;PMS5003;25631;51.516;-0.470;2023-11-19T06:45:09;2;1;
39955;PMS5003;25631;51.516;-0.470;2023-11-19T06:47:45;2;1;
39955;PMS5003;25631;51.516;-0.470;2023-11-19T06:50:22;1;1;
39955;PMS5003;25631;51.516;-0.470;2023-11-19T06:52:58;1;1;
39955;PMS5003;25631;51.516;-0.470;2023-11-19T06:55:35;1;1;
39955;PMS5003;25631;51.516;-0.470;2023-11-19T06:58:11;2;2;
39955;PMS5003;25631;51.516;-0.470;2023-11-19T07:00:47;3;2;
39955;PMS5003;25631;51.516;-0.470;2023-11-19T07:03:24;2;2;
39955;PMS5003;25631;51.516;-0.470;2023-11-19T07:06:00;5;3;
39955;PMS5003;25631;51.516;-0.470;2023-11-19T07:08:37;4;3;
39955;PMS5003;25631;51.516;-0.470;2023-11-19T07:11:13;5;3;
39955;PMS5003;25631;51.516;-0.470;2023-11-19T07:13:50;3;3;
39955;PMS5003;25631;51.516;-0.470;2023-11-19T07:16:26;3;3;
39955;PMS5003;25631;51.516;-0.470;2023-11-19T07:19:02;4;3;
39955;PMS5003;25631;51.516;-0.470;2023-11-19T07:21:40;1;1;
39955;PMS5003;25631;51.516;-0.470;2023-11-19T07:24:17;1;1;
39955;PMS5003;25631;51.516;-0.470;2023-11-19T07:26:53;1;1;
39955;PMS5003;25631;51.516;-0.470;2023-11-19T07:29:30;1;1;
39955;PMS5003;25631;51.516;-0.470;2023-11-19T07:32:06;2;2;
39955;PMS5003;25631;51.516;-0.470;2023-11-19T07:34:43;5;5;
39955;PMS5003;25631;51.516;-0.470;2023-11-19T07:37:19;6;5;
39955;PMS5003;25631;51.516;-0.470;2023-11-19T07:39:56;2;2;
39955;PMS5003;25631;51.516;-0.470;2023-11-19T07:42:32;2;2;
39955;PMS5003;25631;51.516;-0.470;2023-11-19T07:45:09;2;2;
39955;PMS5003;25631;51.516;-0.470;2023-11-19T07:47:45;2;2;
39955;PMS5003;25631;51.516;-0.470;2023-11-19T07:50:22;2;1;
39955;PMS5003;25631;51.516;-0.470;2023-11-19T07:52:58;3;2;
39955;PMS5003;25631;51.516;-0.470;2023-11-19T07:55:35;3;3;
39955;PMS5003;25631;51.516;-0.470;2023-11-19T07:58:11;2;2;
39955;PMS5003;25631;51.516;-0.470;2023-11-19T08:00:48;1;1;
39955;PMS5003;25631;51.516;-0.470;2023-11-19T08:03:24;2;2;
39955;PMS5003;25631;51.516;-0.470;2023-11-19T08:06:00;3;2;
39955;PMS5003;25631;51.516;-0.470;2023-11-19T08:08:37;3;3;
39955;PMS5003;25631;51.516;-0.470;2023-11-19T08:11:13;2;2;
39955;PMS5003;25631;51.516;-0.470;2023-11-19T08:13:50;0;0;
39955;PMS5003;25631;51.516;-0.470;2023-11-19T08:16:26;1;1;
39955;PMS5003;25631;51.516;-0.470;2023-11-19T08:19:03;1;1;
39955;PMS5003;25631;51.516;-0.470;2023-11-19T08:21:39;3;3;
39955;PMS5003;25631;51.516;-0.470;2023-11-19T08:24:16;4;3;
39955;PMS5003;25631;51.516;-0.470;2023-11-19T08:26:52;3;2;
39955;PMS5003;25631;51.516;-0.470;2023-11-19T08:29:28;14;12;
39955;PMS5003;25631;51.516;-0.470;2023-11-19T08:32:05;19;17;
39955;PMS5003;25631;51.516;-0.470;2023-11-19T08:34:42;7;6;
39955;PMS5003;25631;51.516;-0.470;2023-11-19T08:37:19;7;6;
39955;PMS5003;25631;51.516;-0.470;2023-11-19T08:39:55;7;6;
39955;PMS5003;25631;51.516;-0.470;2023-11-19T08:42:32;5;3;
39955;PMS5003;25631;51.516;-0.470;2023-11-19T08:45:08;6;4;
39955;PMS5003;25631;51.516;-0.470;2023-11-19T08:47:45;2;2;
39955;PMS5003;25631;51.516;-0.470;2023-11-19T08:50:22;2;2;
39955;PMS5003;25631;51.516;-0.470;2023-11-19T08:52:58;1;0;
39955;PMS5003;25631;51.516;-0.470;2023-11-19T08:55:35;4;3;
39955;PMS5003;25631;51.516;-0.470;2023-11-19T08:58:12;4;4;
39955;PMS5003;25631;51.516;-0.470;2023-11-19T09:00:48;6;6;
39955;PMS5003;25631;51.516;-0.470;2023-11-19T09:03:24;4;4;
39955;PMS5003;25631;51.516;-0.470;2023-11-19T09:06:01;3;3;
39955;PMS5003;25631;51.516;-0.470;2023-11-19T09:08:37;6;5;
39955;PMS5003;25631;51.516;-0.470;2023-11-19T09:11:14;7;6;
39955;PMS5003;25631;51.516;-0.470;2023-11-19T09:13:50;9;6;
39955;PMS5003;25631;51.516;-0.470;2023-11-19T09:16:26;7;6;
39955;PMS5003;25631;51.516;-0.470;2023-11-19T09:19:03;7;6;
39955;PMS5003;25631;51.516;-0.470;2023-11-19T09:21:39;3;1;
39955;PMS5003;25631;51.516;-0.470;2023-11-19T09:24:16;3;2;
39955;PMS5003;25631;51.516;-0.470;2023-11-19T09:26:52;2;1;
39955;PMS5003;25631;51.516;-0.470;2023-11-19T09:29:31;9;7;
39955;PMS5003;25631;51.516;-0.470;2023-11-19T09:32:08;8;6;
39955;PMS5003;25631;51.516;-0.470;2023-11-19T09:34:47;3;3;
39955;PMS5003;25631;51.516;-0.470;2023-11-19T09:37:24;3;3;
39955;PMS5003;25631;51.516;-0.470;2023-11-19T09:40:00;4;4;
39955;PMS5003;25631;51.516;-0.470;2023-11-19T09:42:38;4;3;
39955;PMS5003;25631;51.516;-0.470;2023-11-19T09:45:20;4;3;
39955;PMS5003;25631;51.516;-0.470;2023-11-19T09:47:57;9;7;
39955;PMS5003;25631;51.516;-0.470;2023-11-19T09:50:36;7;5;
39955;PMS5003;25631;51.516;-0.470;2023-11-19T09:53:13;7;4;
39955;PMS5003;25631;51.516;-0.470;2023-11-19T09:55:50;7;7;
39955;PMS5003;25631;51.516;-0.470;2023-11-19T09:58:28;9;8;
39955;PMS5003;25631;51.516;-0.470;2023-11-19T10:01:05;4;3;
39955;PMS5003;25631;51.516;-0.470;2023-11-19T10:03:41;4;3;
39955;PMS5003;25631;51.516;-0.470;2023-11-19T10:06:19;4;3;
39955;PMS5003;25631;51.516;-0.470;2023-11-19T10:08:56;2;1;
39955;PMS5003;25631;51.516;-0.470;2023-11-19T10:11:32;2;2;
39955;PMS5003;25631;51.516;-0.470;2023-11-19T10:14:10;1;0;
39955;PMS5003;25631;51.516;-0.470;2023-11-19T10:16:46;2;2;
39955;PMS5003;25631;51.516;-0.470;2023-11-19T10:19:23;2;1;
39955;PMS5003;25631;51.516;-0.470;2023-11-19T10:22:02;4;4;
39955;PMS5003;25631;51.516;-0.470;2023-11-19T10:24:40;3;2;
39955;PMS5003;25631;51.516;-0.470;2023-11-19T10:27:16;1;1;
39955;PMS5003;25631;51.516;-0.470;2023-11-19T10:29:53;2;1;
39955;PMS5003;25631;51.516;-0.470;2023-11-19T10:32:29;1;0;
39955;PMS5003;25631;51.516;-0.470;2023-11-19T10:35:06;2;2;
39955;PMS5003;25631;51.516;-0.470;2023-11-19T10:37:43;2;2;
39955;PMS5003;25631;51.516;-0.470;2023-11-19T10:40:19;1;1;
39955;PMS5003;25631;51.516;-0.470;2023-11-19T10:43:01;3;3;
39955;PMS5003;25631;51.516;-0.470;2023-11-19T10:45:38;3;3;
39955;PMS5003;25631;51.516;-0.470;2023-11-19T10:48:15;3;3;
39955;PMS5003;25631;51.516;-0.470;2023-11-19T10:50:53;1;1;
39955;PMS5003;25631;51.516;-0.470;2023-11-19T10:53:30;2;2;
39955;PMS5003;25631;51.516;-0.470;2023-11-19T10:56:10;2;1;
39955;PMS5003;25631;51.516;-0.470;2023-11-19T10:58:49;1;1;
39955;PMS5003;25631;51.516;-0.470;2023-11-19T11:01:27;4;1;
39955;PMS5003;25631;51.516;-0.470;2023-11-19T11:04:10;1;1;
39955;PMS5003;25631;51.516;-0.470;2023-11-19T11:06:50;1;1;
39955;PMS5003;25631;51.516;-0.470;2023-11-19T11:09:27;3;1;
39955;PMS5003;25631;51.516;-0.470;2023-11-19T11:12:03;3;2;
39955;PMS5003;25631;51.516;-0.470;2023-11-19T11:14:42;1;1;
39955;PMS5003;25631;51.516;-0.470;2023-11-19T11:17:22;5;5;
39955;PMS5003;25631;51.516;-0.470;2023-11-19T11:20:04;5;5;
39955;PMS5003;25631;51.516;-0.470;2023-11-19T11:22:44;3;3;
39955;PMS5003;25631;51.516;-0.470;2023-11-19T11:25:35;4;4;
39955;PMS5003;25631;51.516;-0.470;2023-11-19T11:28:23;4;4;
39955;PMS5003;25631;51.516;-0.470;2023-11-19T11:31:13;1;1;
39955;PMS5003;25631;51.516;-0.470;2023-11-19T11:34:04;1;1;
39955;PMS5003;25631;51.516;-0.470;2023-11-19T11:36:57;1;1;
39955;PMS5003;25631;51.516;-0.470;2023-11-19T11:39:46;1;0;
39955;PMS5003;25631;51.516;-0.470;2023-11-19T11:42:38;2;2;
39955;PMS5003;25631;51.516;-0.470;2023-11-19T11:45:15;2;1;
39955;PMS5003;25631;51.516;-0.470;2023-11-19T11:48:09;2;2;
39955;PMS5003;25631;51.516;-0.470;2023-11-19T11:50:49;3;3;
39955;PMS5003;25631;51.516;-0.470;2023-11-19T11:53:28;4;4;
39955;PMS5003;25631;51.516;-0.470;2023-11-19T11:56:06;3;3;
39955;PMS5003;25631;51.516;-0.470;2023-11-19T11:58:43;2;2;
39955;PMS5003;25631;51.516;-0.470;2023-11-19T12:01:21;3;3;
39955;PMS5003;25631;51.516;-0.470;2023-11-19T12:03:58;5;4;
39955;PMS5003;25631;51.516;-0.470;2023-11-19T12:06:34;4;2;
39955;PMS5003;25631;51.516;-0.470;2023-11-19T12:09:12;6;3;
39955;PMS5003;25631;51.516;-0.470;2023-11-19T12:11:48;1;1;
39955;PMS5003;25631;51.516;-0.470;2023-11-19T12:14:55;4;3;
39955;PMS5003;25631;51.516;-0.470;2023-11-19T12:17:38;2;1;
39955;PMS5003;25631;51.516;-0.470;2023-11-19T12:20:18;2;2;
39955;PMS5003;25631;51.516;-0.470;2023-11-19T12:22:55;2;2;
39955;PMS5003;25631;51.516;-0.470;2023-11-19T12:25:32;2;2;
39955;PMS5003;25631;51.516;-0.470;2023-11-19T12:28:11;3;3;
39955;PMS5003;25631;51.516;-0.470;2023-11-19T12:30:48;2;1;
39955;PMS5003;25631;51.516;-0.470;2023-11-19T12:33:25;1;1;
39955;PMS5003;25631;51.516;-0.470;2023-11-19T12:36:01;2;2;
39955;PMS5003;25631;51.516;-0.470;2023-11-19T12:38:38;2;1;
39955;PMS5003;25631;51.516;-0.470;2023-11-19T12:41:15;2;2;
39955;PMS5003;25631;51.516;-0.470;2023-11-19T12:43:51;4;3;
39955;PMS5003;25631;51.516;-0.470;2023-11-19T12:46:27;4;4;
39955;PMS5003;25631;51.516;-0.470;2023-11-19T12:49:04;3;3;
39955;PMS5003;25631;51.516;-0.470;2023-11-19T12:51:40;3;3;
39955;PMS5003;25631;51.516;-0.470;2023-11-19T12:54:16;3;3;
39955;PMS5003;25631;51.516;-0.470;2023-11-19T12:56:52;2;2;
39955;PMS5003;25631;51.516;-0.470;2023-11-19T12:59:29;1;1;
39955;PMS5003;25631;51.516;-0.470;2023-11-19T13:02:06;1;1;
39955;PMS5003;25631;51.516;-0.470;2023-11-19T13:04:43;4;3;
39955;PMS5003;25631;51.516;-0.470;2023-11-19T13:07:20;3;2;
39955;PMS5003;25631;51.516;-0.470;2023-11-19T13:10:01;4;3;
39955;PMS5003;25631;51.516;-0.470;2023-11-19T13:12:37;3;2;
39955;PMS5003;25631;51.516;-0.470;2023-11-19T13:15:29;4;2;
39955;PMS5003;25631;51.516;-0.470;2023-11-19T13:18:06;1;1;
39955;PMS5003;25631;51.516;-0.470;2023-11-19T13:20:42;1;1;
39955;PMS5003;25631;51.516;-0.470;2023-11-19T13:23:19;5;4;
39955;PMS5003;25631;51.516;-0.470;2023-11-19T13:25:55;3;3;
39955;PMS5003;25631;51.516;-0.470;2023-11-19T13:28:32;3;3;
39955;PMS5003;25631;51.516;-0.470;2023-11-19T13:31:08;5;3;
39955;PMS5003;25631;51.516;-0.470;2023-11-19T13:33:44;5;4;
39955;PMS5003;25631;51.516;-0.470;2023-11-19T13:36:21;4;3;
39955;PMS5003;25631;51.516;-0.470;2023-11-19T13:38:57;4;3;
39955;PMS5003;25631;51.516;-0.470;2023-11-19T13:41:34;4;3;
39955;PMS5003;25631;51.516;-0.470;2023-11-19T13:44:11;4;4;
39955;PMS5003;25631;51.516;-0.470;2023-11-19T13:46:47;4;4;
39955;PMS5003;25631;51.516;-0.470;2023-11-19T13:49:24;3;3;
39955;PMS5003;25631;51.516;-0.470;2023-11-19T13:52:00;4;4;
39955;PMS5003;25631;51.516;-0.470;2023-11-19T13:54:36;4;4;
39955;PMS5003;25631;51.516;-0.470;2023-11-19T13:57:13;3;3;
39955;PMS5003;25631;51.516;-0.470;2023-11-19T13:59:50;4;4;
39955;PMS5003;25631;51.516;-0.470;2023-11-19T14:02:26;4;4;
39955;PMS5003;25631;51.516;-0.470;2023-11-19T14:05:02;2;1;
39955;PMS5003;25631;51.516;-0.470;2023-11-19T14:07:39;3;3;
39955;PMS5003;25631;51.516;-0.470;2023-11-19T14:10:16;4;3;
39955;PMS5003;25631;51.516;-0.470;2023-11-19T14:12:53;8;6;
39955;PMS5003;25631;51.516;-0.470;2023-11-19T14:15:29;8;5;
39955;PMS5003;25631;51.516;-0.470;2023-11-19T14:18:06;5;4;
39955;PMS5003;25631;51.516;-0.470;2023-11-19T14:20:42;5;4;
39955;PMS5003;25631;51.516;-0.470;2023-11-19T14:23:18;5;4;
39955;PMS5003;25631;51.516;-0.470;2023-11-19T14:25:55;5;5;
39955;PMS5003;25631;51.516;-0.470;2023-11-19T14:28:31;4;4;
39955;PMS5003;25631;51.516;-0.470;2023-11-19T14:31:08;4;4;
39955;PMS5003;25631;51.516;-0.470;2023-11-19T14:33:44;3;3;
39955;PMS5003;25631;51.516;-0.470;2023-11-19T14:36:21;3;3;
39955;PMS5003;25631;51.516;-0.470;2023-11-19T14:38:57;2;1;
39955;PMS5003;25631;51.516;-0.470;2023-11-19T14:41:33;2;1;
39955;PMS5003;25631;51.516;-0.470;2023-11-19T14:44:10;1;1;
39955;PMS5003;25631;51.516;-0.470;2023-11-19T14:46:46;2;2;
39955;PMS5003;25631;51.516;-0.470;2023-11-19T14:49:23;2;2;
39955;PMS5003;25631;51.516;-0.470;2023-11-19T14:51:59;4;3;
39955;PMS5003;25631;51.516;-0.470;2023-11-19T14:54:36;4;3;
39955;PMS5003;25631;51.516;-0.470;2023-11-19T14:57:12;5;4;
39955;PMS5003;25631;51.516;-0.470;2023-11-19T14:59:49;4;3;
39955;PMS5003;25631;51.516;-0.470;2023-11-19T15:02:25;3;3;
39955;PMS5003;25631;51.516;-0.470;2023-11-19T15:05:02;9;7;
39955;PMS5003;25631;51.516;-0.470;2023-11-19T15:07:38;6;5;
39955;PMS5003;25631;51.516;-0.470;2023-11-19T15:10:15;3;3;
39955;PMS5003;25631;51.516;-0.470;2023-11-19T15:12:51;3;3;
39955;PMS5003;25631;51.516;-0.470;2023-11-19T15:15:27;3;3;
39955;PMS5003;25631;51.516;-0.470;2023-11-19T15:18:04;3;3;
39955;PMS5003;25631;51.516;-0.470;2023-11-19T15:20:40;2;2;
39955;PMS5003;25631;51.516;-0.470;2023-11-19T15:23:17;2;2;
39955;PMS5003;25631;51.516;-0.470;2023-11-19T15:25:53;1;1;
39955;PMS5003;25631;51.516;-0.470;2023-11-19T15:28:29;3;3;
39955;PMS5003;25631;51.516;-0.470;2023-11-19T15:31:06;3;3;
39955;PMS5003;25631;51.516;-0.470;2023-11-19T15:33:42;2;2;
39955;PMS5003;25631;51.516;-0.470;2023-11-19T15:36:19;2;2;
39955;PMS5003;25631;51.516;-0.470;2023-11-19T15:38:55;3;3;
39955;PMS5003;25631;51.516;-0.470;2023-11-19T15:41:31;2;2;
39955;PMS5003;25631;51.516;-0.470;2023-11-19T15:44:08;3;2;
39955;PMS5003;25631;51.516;-0.470;2023-11-19T15:46:44;4;3;
39955;PMS5003;25631;51.516;-0.470;2023-11-19T15:49:21;5;3;
39955;PMS5003;25631;51.516;-0.470;2023-11-19T15:52:00;3;3;
39955;PMS5003;25631;51.516;-0.470;2023-11-19T15:54:36;5;3;
39955;PMS5003;25631;51.516;-0.470;2023-11-19T15:57:13;6;4;
39955;PMS5003;25631;51.516;-0.470;2023-11-19T15:59:49;11;11;
39955;PMS5003;25631;51.516;-0.470;2023-11-19T16:02:25;11;11;
39955;PMS5003;25631;51.516;-0.470;2023-11-19T16:05:02;10;10;
39955;PMS5003;25631;51.516;-0.470;2023-11-19T16:07:38;10;10;
39955;PMS5003;25631;51.516;-0.470;2023-11-19T16:10:15;10;10;
39955;PMS5003;25631;51.516;-0.470;2023-11-19T16:12:52;11;11;
39955;PMS5003;25631;51.516;-0.470;2023-11-19T16:15:28;10;10;
39955;PMS5003;25631;51.516;-0.470;2023-11-19T16:18:05;10;10;
39955;PMS5003;25631;51.516;-0.470;2023-11-19T16:20:41;11;9;
39955;PMS5003;25631;51.516;-0.470;2023-11-19T16:23:18;11;9;
39955;PMS5003;25631;51.516;-0.470;2023-11-19T16:25:54;8;8;
39955;PMS5003;25631;51.516;-0.470;2023-11-19T16:28:30;7;7;
39955;PMS5003;25631;51.516;-0.470;2023-11-19T16:31:07;7;7;
39955;PMS5003;25631;51.516;-0.470;2023-11-19T16:33:43;7;7;
39955;PMS5003;25631;51.516;-0.470;2023-11-19T16:36:20;7;7;
39955;PMS5003;25631;51.516;-0.470;2023-11-19T16:38:56;15;14;
39955;PMS5003;25631;51.516;-0.470;2023-11-19T16:41:32;16;15;
39955;PMS5003;25631;51.516;-0.470;2023-11-19T16:44:09;16;15;
39955;PMS5003;25631;51.516;-0.470;2023-11-19T16:46:45;16;15;
39955;PMS5003;25631;51.516;-0.470;2023-11-19T16:49:22;16;15;
39955;PMS5003;25631;51.516;-0.470;2023-11-19T16:51:58;15;14;
39955;PMS5003;25631;51.516;-0.470;2023-11-19T16:54:34;14;14;
39955;PMS5003;25631;51.516;-0.470;2023-11-19T16:57:11;13;13;
39955;PMS5003;25631;51.516;-0.470;2023-11-19T16:59:47;16;14;
39955;PMS5003;25631;51.516;-0.470;2023-11-19T17:02:23;18;16;
39955;PMS5003;25631;51.516;-0.470;2023-11-19T17:05:00;17;16;
39955;PMS5003;25631;51.516;-0.470;2023-11-19T17:07:37;22;20;
39955;PMS5003;25631;51.516;-0.470;2023-11-19T17:10:13;21;19;
39955;PMS5003;25631;51.516;-0.470;2023-11-19T17:12:50;14;11;
39955;PMS5003;25631;51.516;-0.470;2023-11-19T17:15:26;15;12;
39955;PMS5003;25631;51.516;-0.470;2023-11-19T17:18:03;15;12;
39955;PMS5003;25631;51.516;-0.470;2023-11-19T17:20:39;10;8;
39955;PMS5003;25631;51.516;-0.470;2023-11-19T17:23:15;11;8;
39955;PMS5003;25631;51.516;-0.470;2023-11-19T17:25:52;10;8;
39955;PMS5003;25631;51.516;-0.470;2023-11-19T17:28:28;9;8;
39955;PMS5003;25631;51.516;-0.470;2023-11-19T17:31:05;8;7;
39955;PMS5003;25631;51.516;-0.470;2023-11-19T17:33:41;6;6;
39955;PMS5003;25631;51.516;-0.470;2023-11-19T17:36:18;6;6;